KIWD Weather

FAA AWOS (Automated Weather Observing System)

Weather observations for the last 3 days click here.

KIWD

METAR
KIWD 261235Z AUTO 10004KT 1/4SM FG OVC003 13/13 A2991 RMK AO2 RVRNO
KIWD 261203Z AUTO 07004KT 1/2SM FG OVC003 13/13 A2991 RMK AO2 RVRNO
KIWD 261156Z AUTO 07003KT 3/4SM BR OVC003 13/13 A2991 RMK AO2 RAB20E41 SLP131 P0001 60006 70042 T01330133 10139 20133 56007 RVRNO
KIWD 261151Z AUTO 08004KT 1SM BR OVC003 13/13 A2991 RMK AO2 RAB20E41 P0001 RVRNO
KIWD 261104Z AUTO 08005KT 1 3/4SM BR OVC003 13/13 A2991 RMK AO2
KIWD 261056Z AUTO 06004KT 2SM BR OVC003 13/13 A2991 RMK AO2 RAE18 SLP130 P0000 T01330128
TAF
KIWD 261120Z 2612/2712 07003KT 2SM -SHRA BR OVC003 FM261600 00000KT 4SM BR VCSH OVC003 FM262100 30006KT 5SM BR VCSH OVC006 FM270300 29008KT P6SM OVC008 FM271000 29009KT P6SM BKN010